sensor_id;sensor_type;location;lat;lon;timestamp;P1;durP1;ratioP1;P2;durP2;ratioP2
75408;SDS011;63979;55.644;37.734;2023-05-07T00:02:28;3.15;;;2.00;;
75408;SDS011;63979;55.644;37.734;2023-05-07T00:07:29;7.93;;;2.88;;
75408;SDS011;63979;55.644;37.734;2023-05-07T00:12:30;4.95;;;2.20;;
75408;SDS011;63979;55.644;37.734;2023-05-07T00:17:34;4.20;;;2.25;;
75408;SDS011;63979;55.644;37.734;2023-05-07T00:22:35;3.83;;;2.80;;
75408;SDS011;63979;55.644;37.734;2023-05-07T00:27:36;5.38;;;2.60;;
75408;SDS011;63979;55.644;37.734;2023-05-07T00:32:37;5.60;;;2.38;;
75408;SDS011;63979;55.644;37.734;2023-05-07T00:37:38;3.97;;;2.15;;
75408;SDS011;63979;55.644;37.734;2023-05-07T00:42:39;3.60;;;2.20;;
75408;SDS011;63979;55.644;37.734;2023-05-07T00:47:40;5.43;;;2.13;;
75408;SDS011;63979;55.644;37.734;2023-05-07T00:52:41;3.97;;;2.45;;
75408;SDS011;63979;55.644;37.734;2023-05-07T00:57:42;4.05;;;2.08;;
75408;SDS011;63979;55.644;37.734;2023-05-07T01:02:45;6.95;;;2.88;;
75408;SDS011;63979;55.644;37.734;2023-05-07T01:07:47;14.18;;;3.13;;
75408;SDS011;63979;55.644;37.734;2023-05-07T01:12:49;2.17;;;1.55;;
75408;SDS011;63979;55.644;37.734;2023-05-07T01:17:50;7.28;;;2.97;;
75408;SDS011;63979;55.644;37.734;2023-05-07T01:22:52;4.70;;;2.50;;
75408;SDS011;63979;55.644;37.734;2023-05-07T01:27:53;4.88;;;2.67;;
75408;SDS011;63979;55.644;37.734;2023-05-07T01:33:04;5.90;;;2.88;;
75408;SDS011;63979;55.644;37.734;2023-05-07T01:38:09;3.45;;;2.38;;
75408;SDS011;63979;55.644;37.734;2023-05-07T01:43:10;5.68;;;3.00;;
75408;SDS011;63979;55.644;37.734;2023-05-07T01:48:12;4.22;;;2.83;;
75408;SDS011;63979;55.644;37.734;2023-05-07T01:53:15;5.10;;;2.38;;
75408;SDS011;63979;55.644;37.734;2023-05-07T01:58:16;4.05;;;2.33;;
75408;SDS011;63979;55.644;37.734;2023-05-07T02:03:17;3.95;;;1.88;;
75408;SDS011;63979;55.644;37.734;2023-05-07T02:08:18;5.95;;;2.83;;
75408;SDS011;63979;55.644;37.734;2023-05-07T02:13:19;3.97;;;2.33;;
75408;SDS011;63979;55.644;37.734;2023-05-07T02:18:22;3.72;;;2.60;;
75408;SDS011;63979;55.644;37.734;2023-05-07T02:23:23;4.95;;;2.65;;
75408;SDS011;63979;55.644;37.734;2023-05-07T02:28:24;2.72;;;2.22;;
75408;SDS011;63979;55.644;37.734;2023-05-07T02:33:25;3.03;;;1.95;;
75408;SDS011;63979;55.644;37.734;2023-05-07T02:38:26;3.60;;;2.72;;
75408;SDS011;63979;55.644;37.734;2023-05-07T02:43:27;4.28;;;2.72;;
75408;SDS011;63979;55.644;37.734;2023-05-07T02:48:29;5.43;;;2.67;;
75408;SDS011;63979;55.644;37.734;2023-05-07T02:53:30;7.28;;;3.35;;
75408;SDS011;63979;55.644;37.734;2023-05-07T02:58:31;7.38;;;3.45;;
75408;SDS011;63979;55.644;37.734;2023-05-07T03:03:32;4.90;;;3.22;;
75408;SDS011;63979;55.644;37.734;2023-05-07T03:08:33;8.95;;;3.75;;
75408;SDS011;63979;55.644;37.734;2023-05-07T03:13:35;6.90;;;2.97;;
75408;SDS011;63979;55.644;37.734;2023-05-07T03:18:35;4.07;;;2.92;;
75408;SDS011;63979;55.644;37.734;2023-05-07T03:23:37;2.92;;;2.55;;
75408;SDS011;63979;55.644;37.734;2023-05-07T03:28:37;5.25;;;2.97;;
75408;SDS011;63979;55.644;37.734;2023-05-07T03:33:47;8.10;;;3.00;;
75408;SDS011;63979;55.644;37.734;2023-05-07T03:38:52;5.45;;;3.63;;
75408;SDS011;63979;55.644;37.734;2023-05-07T03:43:53;5.65;;;2.92;;
75408;SDS011;63979;55.644;37.734;2023-05-07T03:48:54;6.78;;;2.90;;
75408;SDS011;63979;55.644;37.734;2023-05-07T03:53:55;6.72;;;3.05;;
75408;SDS011;63979;55.644;37.734;2023-05-07T03:58:57;7.28;;;3.45;;
75408;SDS011;63979;55.644;37.734;2023-05-07T04:03:58;5.55;;;3.28;;
75408;SDS011;63979;55.644;37.734;2023-05-07T04:08:59;5.90;;;2.83;;
75408;SDS011;63979;55.644;37.734;2023-05-07T04:14:00;5.35;;;2.92;;
75408;SDS011;63979;55.644;37.734;2023-05-07T04:19:00;4.65;;;2.80;;
75408;SDS011;63979;55.644;37.734;2023-05-07T04:24:02;4.20;;;2.90;;
75408;SDS011;63979;55.644;37.734;2023-05-07T04:29:04;4.72;;;2.90;;
75408;SDS011;63979;55.644;37.734;2023-05-07T04:34:06;6.68;;;3.00;;
75408;SDS011;63979;55.644;37.734;2023-05-07T04:39:07;8.20;;;2.90;;
75408;SDS011;63979;55.644;37.734;2023-05-07T04:44:09;3.40;;;2.08;;
75408;SDS011;63979;55.644;37.734;2023-05-07T04:49:11;2.67;;;1.90;;
75408;SDS011;63979;55.644;37.734;2023-05-07T04:54:12;4.80;;;2.38;;
75408;SDS011;63979;55.644;37.734;2023-05-07T04:59:13;4.47;;;2.10;;
75408;SDS011;63979;55.644;37.734;2023-05-07T05:04:15;8.57;;;2.95;;
75408;SDS011;63979;55.644;37.734;2023-05-07T05:09:16;2.25;;;1.58;;
75408;SDS011;63979;55.644;37.734;2023-05-07T05:14:17;2.58;;;1.63;;
75408;SDS011;63979;55.644;37.734;2023-05-07T05:19:18;7.65;;;2.25;;
75408;SDS011;63979;55.644;37.734;2023-05-07T05:24:19;2.97;;;1.58;;
75408;SDS011;63979;55.644;37.734;2023-05-07T05:29:20;3.05;;;2.13;;
75408;SDS011;63979;55.644;37.734;2023-05-07T05:34:22;2.40;;;1.40;;
75408;SDS011;63979;55.644;37.734;2023-05-07T05:39:22;3.03;;;1.60;;
75408;SDS011;63979;55.644;37.734;2023-05-07T05:44:23;6.57;;;1.90;;
75408;SDS011;63979;55.644;37.734;2023-05-07T05:49:25;3.08;;;1.55;;
75408;SDS011;63979;55.644;37.734;2023-05-07T05:54:26;3.20;;;1.67;;
75408;SDS011;63979;55.644;37.734;2023-05-07T05:59:27;1.70;;;1.58;;
75408;SDS011;63979;55.644;37.734;2023-05-07T06:04:28;2.95;;;1.73;;
75408;SDS011;63979;55.644;37.734;2023-05-07T06:09:29;3.60;;;1.95;;
75408;SDS011;63979;55.644;37.734;2023-05-07T06:19:31;7.90;;;2.22;;
75408;SDS011;63979;55.644;37.734;2023-05-07T06:24:31;2.42;;;1.80;;
75408;SDS011;63979;55.644;37.734;2023-05-07T06:29:33;3.72;;;1.60;;
75408;SDS011;63979;55.644;37.734;2023-05-07T06:34:34;4.03;;;2.15;;
75408;SDS011;63979;55.644;37.734;2023-05-07T06:39:35;5.30;;;1.90;;
75408;SDS011;63979;55.644;37.734;2023-05-07T06:44:37;4.88;;;1.90;;
75408;SDS011;63979;55.644;37.734;2023-05-07T06:49:38;3.85;;;2.05;;
75408;SDS011;63979;55.644;37.734;2023-05-07T06:54:39;3.80;;;2.25;;
75408;SDS011;63979;55.644;37.734;2023-05-07T06:59:40;3.05;;;1.17;;
75408;SDS011;63979;55.644;37.734;2023-05-07T07:04:41;2.58;;;1.38;;
75408;SDS011;63979;55.644;37.734;2023-05-07T07:09:42;2.25;;;1.25;;
75408;SDS011;63979;55.644;37.734;2023-05-07T07:14:43;3.63;;;2.70;;
75408;SDS011;63979;55.644;37.734;2023-05-07T07:19:44;2.33;;;2.05;;
75408;SDS011;63979;55.644;37.734;2023-05-07T07:24:45;1.88;;;1.40;;
75408;SDS011;63979;55.644;37.734;2023-05-07T07:29:46;4.82;;;1.50;;
75408;SDS011;63979;55.644;37.734;2023-05-07T07:34:47;2.60;;;1.70;;
75408;SDS011;63979;55.644;37.734;2023-05-07T07:39:49;1.77;;;1.35;;
75408;SDS011;63979;55.644;37.734;2023-05-07T07:44:50;2.53;;;1.73;;
75408;SDS011;63979;55.644;37.734;2023-05-07T07:49:51;2.17;;;1.40;;
75408;SDS011;63979;55.644;37.734;2023-05-07T07:54:52;1.90;;;1.25;;
75408;SDS011;63979;55.644;37.734;2023-05-07T07:59:53;6.38;;;1.23;;
75408;SDS011;63979;55.644;37.734;2023-05-07T08:04:54;3.10;;;1.38;;
75408;SDS011;63979;55.644;37.734;2023-05-07T08:09:56;3.33;;;1.35;;
75408;SDS011;63979;55.644;37.734;2023-05-07T08:19:58;2.22;;;1.30;;
75408;SDS011;63979;55.644;37.734;2023-05-07T08:30:00;3.80;;;1.38;;
75408;SDS011;63979;55.644;37.734;2023-05-07T08:35:05;1.77;;;1.15;;
75408;SDS011;63979;55.644;37.734;2023-05-07T08:40:06;2.05;;;1.10;;
75408;SDS011;63979;55.644;37.734;2023-05-07T08:45:08;1.92;;;1.73;;
75408;SDS011;63979;55.644;37.734;2023-05-07T08:50:11;2.50;;;1.38;;
75408;SDS011;63979;55.644;37.734;2023-05-07T08:55:13;1.40;;;1.10;;
75408;SDS011;63979;55.644;37.734;2023-05-07T09:00:14;3.58;;;1.20;;
75408;SDS011;63979;55.644;37.734;2023-05-07T09:05:15;4.50;;;1.80;;
75408;SDS011;63979;55.644;37.734;2023-05-07T09:10:16;3.67;;;1.67;;
75408;SDS011;63979;55.644;37.734;2023-05-07T09:15:17;4.15;;;1.70;;
75408;SDS011;63979;55.644;37.734;2023-05-07T09:20:19;3.72;;;1.58;;
75408;SDS011;63979;55.644;37.734;2023-05-07T09:25:27;2.65;;;1.35;;
75408;SDS011;63979;55.644;37.734;2023-05-07T09:30:33;1.33;;;1.10;;
75408;SDS011;63979;55.644;37.734;2023-05-07T09:35:35;2.70;;;1.20;;
75408;SDS011;63979;55.644;37.734;2023-05-07T09:40:38;1.45;;;1.00;;
75408;SDS011;63979;55.644;37.734;2023-05-07T09:45:39;3.17;;;1.23;;
75408;SDS011;63979;55.644;37.734;2023-05-07T09:50:49;2.33;;;1.20;;
75408;SDS011;63979;55.644;37.734;2023-05-07T09:55:58;4.60;;;1.73;;
75408;SDS011;63979;55.644;37.734;2023-05-07T10:01:00;2.78;;;1.10;;
75408;SDS011;63979;55.644;37.734;2023-05-07T10:06:03;2.58;;;1.05;;
75408;SDS011;63979;55.644;37.734;2023-05-07T10:11:05;4.82;;;1.45;;
75408;SDS011;63979;55.644;37.734;2023-05-07T10:16:06;3.15;;;1.73;;
75408;SDS011;63979;55.644;37.734;2023-05-07T10:21:08;2.33;;;1.10;;
75408;SDS011;63979;55.644;37.734;2023-05-07T10:26:20;3.20;;;1.60;;
75408;SDS011;63979;55.644;37.734;2023-05-07T10:36:43;1.55;;;1.25;;
75408;SDS011;63979;55.644;37.734;2023-05-07T10:41:45;2.47;;;1.13;;
75408;SDS011;63979;55.644;37.734;2023-05-07T10:47:02;3.30;;;1.52;;
75408;SDS011;63979;55.644;37.734;2023-05-07T10:52:14;2.20;;;1.60;;
75408;SDS011;63979;55.644;37.734;2023-05-07T11:08:02;2.30;;;1.52;;
75408;SDS011;63979;55.644;37.734;2023-05-07T11:13:05;2.40;;;1.48;;
75408;SDS011;63979;55.644;37.734;2023-05-07T11:18:06;2.95;;;2.10;;
75408;SDS011;63979;55.644;37.734;2023-05-07T11:23:07;2.22;;;1.45;;
75408;SDS011;63979;55.644;37.734;2023-05-07T11:28:08;1.88;;;1.27;;
75408;SDS011;63979;55.644;37.734;2023-05-07T11:33:11;3.28;;;1.38;;
75408;SDS011;63979;55.644;37.734;2023-05-07T11:38:12;3.25;;;1.58;;
75408;SDS011;63979;55.644;37.734;2023-05-07T11:43:14;4.18;;;2.20;;
75408;SDS011;63979;55.644;37.734;2023-05-07T11:48:16;6.20;;;2.03;;
75408;SDS011;63979;55.644;37.734;2023-05-07T11:53:17;7.38;;;3.22;;
75408;SDS011;63979;55.644;37.734;2023-05-07T11:58:22;4.78;;;1.85;;
75408;SDS011;63979;55.644;37.734;2023-05-07T12:03:26;2.65;;;1.45;;
75408;SDS011;63979;55.644;37.734;2023-05-07T12:08:27;2.03;;;1.10;;
75408;SDS011;63979;55.644;37.734;2023-05-07T12:13:28;1.83;;;1.33;;
75408;SDS011;63979;55.644;37.734;2023-05-07T12:18:29;6.30;;;2.38;;
75408;SDS011;63979;55.644;37.734;2023-05-07T12:23:30;2.70;;;1.65;;
75408;SDS011;63979;55.644;37.734;2023-05-07T12:28:36;2.22;;;1.40;;
75408;SDS011;63979;55.644;37.734;2023-05-07T12:33:39;2.03;;;1.08;;
75408;SDS011;63979;55.644;37.734;2023-05-07T12:38:40;3.65;;;1.10;;
75408;SDS011;63979;55.644;37.734;2023-05-07T12:43:45;4.93;;;1.38;;
75408;SDS011;63979;55.644;37.734;2023-05-07T12:48:48;2.92;;;1.58;;
75408;SDS011;63979;55.644;37.734;2023-05-07T12:53:49;2.03;;;1.20;;
75408;SDS011;63979;55.644;37.734;2023-05-07T12:58:50;1.33;;;0.93;;
75408;SDS011;63979;55.644;37.734;2023-05-07T13:03:51;1.23;;;1.13;;
75408;SDS011;63979;55.644;37.734;2023-05-07T13:08:52;1.15;;;0.90;;
75408;SDS011;63979;55.644;37.734;2023-05-07T13:13:53;3.65;;;2.20;;
75408;SDS011;63979;55.644;37.734;2023-05-07T13:18:54;1.92;;;1.42;;
75408;SDS011;63979;55.644;37.734;2023-05-07T13:23:55;1.80;;;1.40;;
75408;SDS011;63979;55.644;37.734;2023-05-07T13:28:56;2.03;;;1.08;;
75408;SDS011;63979;55.644;37.734;2023-05-07T13:33:57;2.90;;;1.30;;
75408;SDS011;63979;55.644;37.734;2023-05-07T13:38:58;1.90;;;1.20;;
75408;SDS011;63979;55.644;37.734;2023-05-07T13:44:00;2.30;;;1.30;;
75408;SDS011;63979;55.644;37.734;2023-05-07T13:49:01;1.83;;;1.33;;
75408;SDS011;63979;55.644;37.734;2023-05-07T13:54:02;5.60;;;1.40;;
75408;SDS011;63979;55.644;37.734;2023-05-07T13:59:05;3.85;;;1.80;;
75408;SDS011;63979;55.644;37.734;2023-05-07T14:04:06;6.35;;;2.05;;
75408;SDS011;63979;55.644;37.734;2023-05-07T14:09:08;2.00;;;1.10;;
75408;SDS011;63979;55.644;37.734;2023-05-07T14:14:12;1.33;;;1.20;;
75408;SDS011;63979;55.644;37.734;2023-05-07T14:19:13;3.05;;;1.25;;
75408;SDS011;63979;55.644;37.734;2023-05-07T14:24:14;1.63;;;1.13;;
75408;SDS011;63979;55.644;37.734;2023-05-07T14:29:16;4.57;;;1.25;;
75408;SDS011;63979;55.644;37.734;2023-05-07T14:34:19;2.55;;;1.10;;
75408;SDS011;63979;55.644;37.734;2023-05-07T14:39:20;2.67;;;1.30;;
75408;SDS011;63979;55.644;37.734;2023-05-07T14:44:21;1.30;;;1.00;;
75408;SDS011;63979;55.644;37.734;2023-05-07T14:49:22;2.85;;;1.65;;
75408;SDS011;63979;55.644;37.734;2023-05-07T14:54:24;4.95;;;1.42;;
75408;SDS011;63979;55.644;37.734;2023-05-07T14:59:25;1.60;;;1.20;;
75408;SDS011;63979;55.644;37.734;2023-05-07T15:04:26;1.25;;;1.10;;
75408;SDS011;63979;55.644;37.734;2023-05-07T15:09:27;2.53;;;1.17;;
75408;SDS011;63979;55.644;37.734;2023-05-07T15:14:35;4.43;;;1.48;;
75408;SDS011;63979;55.644;37.734;2023-05-07T15:19:36;2.42;;;1.35;;
75408;SDS011;63979;55.644;37.734;2023-05-07T15:24:38;1.35;;;1.20;;
75408;SDS011;63979;55.644;37.734;2023-05-07T15:29:39;2.50;;;1.50;;
75408;SDS011;63979;55.644;37.734;2023-05-07T15:34:40;3.10;;;1.33;;
75408;SDS011;63979;55.644;37.734;2023-05-07T15:39:41;4.50;;;1.08;;
75408;SDS011;63979;55.644;37.734;2023-05-07T15:44:42;2.13;;;1.27;;
75408;SDS011;63979;55.644;37.734;2023-05-07T15:49:44;1.90;;;1.08;;
75408;SDS011;63979;55.644;37.734;2023-05-07T15:54:44;1.75;;;1.10;;
75408;SDS011;63979;55.644;37.734;2023-05-07T15:59:45;1.60;;;1.20;;
75408;SDS011;63979;55.644;37.734;2023-05-07T16:04:47;3.17;;;1.52;;
75408;SDS011;63979;55.644;37.734;2023-05-07T16:09:48;1.50;;;1.00;;
75408;SDS011;63979;55.644;37.734;2023-05-07T16:14:49;3.17;;;1.65;;
75408;SDS011;63979;55.644;37.734;2023-05-07T16:19:51;6.82;;;1.85;;
75408;SDS011;63979;55.644;37.734;2023-05-07T16:24:52;9.70;;;2.35;;
75408;SDS011;63979;55.644;37.734;2023-05-07T16:29:53;5.45;;;2.50;;
75408;SDS011;63979;55.644;37.734;2023-05-07T16:34:54;6.10;;;2.20;;
75408;SDS011;63979;55.644;37.734;2023-05-07T16:39:55;4.97;;;2.17;;
75408;SDS011;63979;55.644;37.734;2023-05-07T16:44:56;4.63;;;1.92;;
75408;SDS011;63979;55.644;37.734;2023-05-07T16:49:57;4.22;;;1.75;;
75408;SDS011;63979;55.644;37.734;2023-05-07T16:55:00;4.25;;;1.40;;
75408;SDS011;63979;55.644;37.734;2023-05-07T17:00:01;4.85;;;1.70;;
75408;SDS011;63979;55.644;37.734;2023-05-07T17:05:07;7.43;;;2.00;;
75408;SDS011;63979;55.644;37.734;2023-05-07T17:10:08;7.40;;;2.10;;
75408;SDS011;63979;55.644;37.734;2023-05-07T17:15:10;7.25;;;2.78;;
75408;SDS011;63979;55.644;37.734;2023-05-07T17:20:12;6.43;;;2.15;;
75408;SDS011;63979;55.644;37.734;2023-05-07T17:25:13;5.22;;;1.65;;
75408;SDS011;63979;55.644;37.734;2023-05-07T17:30:15;4.47;;;1.77;;
75408;SDS011;63979;55.644;37.734;2023-05-07T17:35:16;2.97;;;1.70;;
75408;SDS011;63979;55.644;37.734;2023-05-07T17:40:18;4.75;;;2.28;;
75408;SDS011;63979;55.644;37.734;2023-05-07T17:45:21;7.38;;;1.80;;
75408;SDS011;63979;55.644;37.734;2023-05-07T17:50:23;3.90;;;1.83;;
75408;SDS011;63979;55.644;37.734;2023-05-07T17:55:24;4.10;;;2.65;;
75408;SDS011;63979;55.644;37.734;2023-05-07T18:00:25;4.25;;;1.85;;
75408;SDS011;63979;55.644;37.734;2023-05-07T18:05:26;5.00;;;2.10;;
75408;SDS011;63979;55.644;37.734;2023-05-07T18:10:28;6.03;;;2.13;;
75408;SDS011;63979;55.644;37.734;2023-05-07T18:15:28;12.07;;;4.85;;
75408;SDS011;63979;55.644;37.734;2023-05-07T18:20:30;9.32;;;3.40;;
75408;SDS011;63979;55.644;37.734;2023-05-07T18:25:31;10.95;;;3.80;;
75408;SDS011;63979;55.644;37.734;2023-05-07T18:30:32;10.30;;;3.00;;
75408;SDS011;63979;55.644;37.734;2023-05-07T18:35:33;9.38;;;3.70;;
75408;SDS011;63979;55.644;37.734;2023-05-07T18:40:34;10.85;;;3.72;;
75408;SDS011;63979;55.644;37.734;2023-05-07T18:45:35;9.55;;;2.78;;
75408;SDS011;63979;55.644;37.734;2023-05-07T18:50:42;12.73;;;3.38;;
75408;SDS011;63979;55.644;37.734;2023-05-07T18:55:47;11.13;;;3.72;;
75408;SDS011;63979;55.644;37.734;2023-05-07T19:00:50;12.60;;;4.10;;
75408;SDS011;63979;55.644;37.734;2023-05-07T19:05:51;9.43;;;3.35;;
75408;SDS011;63979;55.644;37.734;2023-05-07T19:10:55;19.20;;;5.00;;
75408;SDS011;63979;55.644;37.734;2023-05-07T19:15:56;26.77;;;5.90;;
75408;SDS011;63979;55.644;37.734;2023-05-07T19:20:57;26.90;;;4.85;;
75408;SDS011;63979;55.644;37.734;2023-05-07T19:25:58;18.92;;;4.78;;
75408;SDS011;63979;55.644;37.734;2023-05-07T19:31:02;9.98;;;3.45;;
75408;SDS011;63979;55.644;37.734;2023-05-07T19:36:04;10.77;;;3.90;;
75408;SDS011;63979;55.644;37.734;2023-05-07T19:41:05;10.95;;;3.72;;
75408;SDS011;63979;55.644;37.734;2023-05-07T19:46:06;16.63;;;3.67;;
75408;SDS011;63979;55.644;37.734;2023-05-07T19:51:07;11.25;;;4.20;;
75408;SDS011;63979;55.644;37.734;2023-05-07T19:56:08;7.13;;;3.35;;
75408;SDS011;63979;55.644;37.734;2023-05-07T20:01:10;13.32;;;3.47;;
75408;SDS011;63979;55.644;37.734;2023-05-07T20:06:11;10.82;;;4.10;;
75408;SDS011;63979;55.644;37.734;2023-05-07T20:11:15;20.75;;;4.38;;
75408;SDS011;63979;55.644;37.734;2023-05-07T20:16:16;15.10;;;5.13;;
75408;SDS011;63979;55.644;37.734;2023-05-07T20:21:17;15.20;;;4.72;;
75408;SDS011;63979;55.644;37.734;2023-05-07T20:26:18;35.75;;;6.95;;
75408;SDS011;63979;55.644;37.734;2023-05-07T20:31:20;22.63;;;4.75;;
75408;SDS011;63979;55.644;37.734;2023-05-07T20:36:21;17.60;;;5.90;;
75408;SDS011;63979;55.644;37.734;2023-05-07T20:41:25;25.67;;;6.13;;
75408;SDS011;63979;55.644;37.734;2023-05-07T20:46:26;14.35;;;3.47;;
75408;SDS011;63979;55.644;37.734;2023-05-07T20:51:27;22.58;;;4.90;;
75408;SDS011;63979;55.644;37.734;2023-05-07T20:56:28;10.48;;;3.72;;
75408;SDS011;63979;55.644;37.734;2023-05-07T21:01:29;10.35;;;4.15;;
75408;SDS011;63979;55.644;37.734;2023-05-07T21:06:29;8.45;;;4.38;;
75408;SDS011;63979;55.644;37.734;2023-05-07T21:11:30;8.85;;;3.53;;
75408;SDS011;63979;55.644;37.734;2023-05-07T21:16:31;10.00;;;3.25;;
75408;SDS011;63979;55.644;37.734;2023-05-07T21:21:32;12.27;;;3.97;;
75408;SDS011;63979;55.644;37.734;2023-05-07T21:26:33;12.75;;;5.13;;
75408;SDS011;63979;55.644;37.734;2023-05-07T21:31:34;6.32;;;3.53;;
75408;SDS011;63979;55.644;37.734;2023-05-07T21:36:35;12.32;;;4.45;;
75408;SDS011;63979;55.644;37.734;2023-05-07T21:41:36;5.45;;;3.60;;
75408;SDS011;63979;55.644;37.734;2023-05-07T21:46:36;10.20;;;4.10;;
75408;SDS011;63979;55.644;37.734;2023-05-07T21:51:37;9.77;;;4.60;;
75408;SDS011;63979;55.644;37.734;2023-05-07T21:56:38;16.50;;;4.97;;
75408;SDS011;63979;55.644;37.734;2023-05-07T22:01:39;10.77;;;4.68;;
75408;SDS011;63979;55.644;37.734;2023-05-07T22:06:40;12.77;;;4.50;;
75408;SDS011;63979;55.644;37.734;2023-05-07T22:11:41;14.85;;;3.97;;
75408;SDS011;63979;55.644;37.734;2023-05-07T22:16:42;13.27;;;4.43;;
75408;SDS011;63979;55.644;37.734;2023-05-07T22:21:43;12.98;;;5.05;;
75408;SDS011;63979;55.644;37.734;2023-05-07T22:26:44;16.88;;;6.38;;
75408;SDS011;63979;55.644;37.734;2023-05-07T22:31:50;11.90;;;5.20;;
75408;SDS011;63979;55.644;37.734;2023-05-07T22:36:52;15.80;;;5.72;;
75408;SDS011;63979;55.644;37.734;2023-05-07T22:41:53;20.15;;;5.72;;
75408;SDS011;63979;55.644;37.734;2023-05-07T22:46:53;10.95;;;3.67;;
75408;SDS011;63979;55.644;37.734;2023-05-07T22:51:54;15.23;;;4.03;;
75408;SDS011;63979;55.644;37.734;2023-05-07T22:56:55;14.48;;;4.10;;
75408;SDS011;63979;55.644;37.734;2023-05-07T23:01:58;11.57;;;4.35;;
75408;SDS011;63979;55.644;37.734;2023-05-07T23:06:59;13.52;;;5.50;;
75408;SDS011;63979;55.644;37.734;2023-05-07T23:12:00;9.50;;;4.50;;
75408;SDS011;63979;55.644;37.734;2023-05-07T23:17:01;16.60;;;6.15;;
75408;SDS011;63979;55.644;37.734;2023-05-07T23:22:03;11.95;;;4.40;;
75408;SDS011;63979;55.644;37.734;2023-05-07T23:27:04;15.20;;;4.82;;
75408;SDS011;63979;55.644;37.734;2023-05-07T23:32:05;13.95;;;5.20;;
75408;SDS011;63979;55.644;37.734;2023-05-07T23:37:07;11.27;;;4.10;;
75408;SDS011;63979;55.644;37.734;2023-05-07T23:47:10;7.13;;;3.83;;
75408;SDS011;63979;55.644;37.734;2023-05-07T23:52:12;7.53;;;3.90;;
75408;SDS011;63979;55.644;37.734;2023-05-07T23:57:13;8.02;;;3.35;;
